Terminal Aerodrome Forecast
Issued by NWS Blacksburg, VA

Home | Current Version | Previous Version | Text Only | Print | Product List | Glossary On
Versions: 1 2 3 4 5 6 7 8 9 10 11 12
000
FTUS41 KRNK 260522
TAFLYH
TAF
KLYH 260522Z 2606/2706 20004KT P6SM SCT080
     FM260900 00000KT 4SM BR BKN080
     FM261300 26007KT P6SM SCT045
     FM261900 23006KT P6SM VCTS BKN050CB
     FM270100 00000KT P6SM -SHRA BKN045 OVC100=

USA.gov is the U.S. government's official web portal to all federal, state and local government web resources and services.